Time;durP1;ratioP1;P1;durP2;ratioP2;P2;SDS_P1;SDS_P2;PMS_P1;PMS_P2;Temp;Humidity;BMP_temperature;BMP_pressure;BME280_temperature;BME280_humidity;BME280_pressure;Samples;Min_cycle;Max_cycle;Signal;HPM_P1;HPM_P2
2022/03/08 00:00:54;;;;;;;8.57;5.00;;;4.40;99.90;;;;;;5033360;28;20805;-58
2022/03/08 00:03:20;;;;;;;6.93;3.90;;;4.30;99.90;;;;;;5046667;28;20455;-55
2022/03/08 00:05:49;;;;;;;6.83;4.00;;;4.30;99.90;;;;;;5051176;28;20412;-59
2022/03/08 00:08:16;;;;;;;6.43;3.53;;;4.40;99.90;;;;;;5050907;28;20436;-56
2022/03/08 00:10:43;;;;;;;4.73;3.37;;;4.40;99.90;;;;;;5029815;28;20477;-61
2022/03/08 00:13:10;;;;;;;10.33;4.37;;;4.30;99.90;;;;;;5027970;28;20425;-59
2022/03/08 00:15:37;;;;;;;10.83;4.57;;;4.30;99.90;;;;;;5030883;28;20468;-59
2022/03/08 00:18:06;;;;;;;6.57;3.53;;;4.30;99.90;;;;;;5027783;28;20543;-60
2022/03/08 00:20:33;;;;;;;8.73;3.93;;;4.20;99.90;;;;;;5028748;28;20449;-61
2022/03/08 00:23:00;;;;;;;7.23;3.70;;;4.20;99.90;;;;;;5032761;28;20500;-59
2022/03/08 00:25:28;;;;;;;6.27;4.47;;;4.20;99.90;;;;;;5041253;28;20758;-55
2022/03/08 00:27:54;;;;;;;9.13;4.27;;;4.10;99.90;;;;;;5047694;28;20471;-54
2022/03/08 00:30:24;;;;;;;5.67;3.30;;;4.20;99.90;;;;;;5051277;28;20463;-56
2022/03/08 00:32:52;;;;;;;5.87;3.53;;;4.20;99.90;;;;;;5054140;28;20527;-53
2022/03/08 00:35:22;;;;;;;7.20;4.13;;;4.10;99.90;;;;;;5052745;28;20448;-58
2022/03/08 00:37:50;;;;;;;6.80;3.43;;;4.10;99.90;;;;;;5042694;28;20465;-56
2022/03/08 00:40:19;;;;;;;4.73;3.60;;;4.10;99.90;;;;;;5043787;28;20482;-58
2022/03/08 00:42:46;;;;;;;6.73;3.80;;;4.10;99.90;;;;;;5049580;28;20452;-58
2022/03/08 00:45:13;;;;;;;8.37;3.10;;;4.10;99.90;;;;;;5050378;28;20467;-60
2022/03/08 00:47:43;;;;;;;5.90;3.50;;;4.10;99.90;;;;;;5041621;28;20437;-59
2022/03/08 00:50:12;;;;;;;8.07;3.67;;;4.10;99.90;;;;;;5033330;28;20463;-56
2022/03/08 00:52:41;;;;;;;8.50;4.00;;;4.10;99.90;;;;;;5052884;28;20464;-60
2022/03/08 00:55:09;;;;;;;5.00;3.53;;;4.00;99.90;;;;;;5041576;28;20475;-59
2022/03/08 00:57:36;;;;;;;8.77;3.77;;;4.00;99.90;;;;;;5032539;28;20481;-59
2022/03/08 01:00:06;;;;;;;8.50;3.70;;;4.00;99.90;;;;;;5044391;28;20475;-59
2022/03/08 01:02:33;;;;;;;7.50;3.30;;;4.00;99.90;;;;;;5053384;28;20501;-58
2022/03/08 01:04:59;;;;;;;14.47;4.50;;;3.90;99.90;;;;;;5041813;28;20952;-59
2022/03/08 01:07:26;;;;;;;6.50;4.80;;;3.90;99.90;;;;;;5054583;28;20448;-58
2022/03/08 01:09:54;;;;;;;10.70;4.27;;;3.90;99.90;;;;;;5046623;28;20473;-60
2022/03/08 01:12:21;;;;;;;7.57;3.93;;;3.90;99.90;;;;;;5036473;28;20445;-60
2022/03/08 01:14:47;;;;;;;13.83;4.70;;;3.90;99.90;;;;;;5033562;28;20484;-60
2022/03/08 01:17:14;;;;;;;8.63;4.13;;;3.90;99.90;;;;;;5032133;28;20988;-60
2022/03/08 01:19:41;;;;;;;8.47;3.83;;;3.90;99.90;;;;;;5050684;28;20440;-60
2022/03/08 01:22:08;;;;;;;7.20;3.90;;;3.90;99.90;;;;;;5057747;28;20468;-57
2022/03/08 01:24:34;;;;;;;9.20;3.47;;;3.80;99.90;;;;;;5034943;28;20496;-57
2022/03/08 01:27:03;;;;;;;7.00;4.10;;;3.80;99.90;;;;;;5032959;28;20468;-56
2022/03/08 01:29:29;;;;;;;9.93;3.70;;;3.80;99.90;;;;;;5038215;28;20471;-55
2022/03/08 01:31:58;;;;;;;7.40;3.63;;;3.80;99.90;;;;;;5052509;28;20456;-58
2022/03/08 01:34:24;;;;;;;5.97;3.87;;;3.80;99.90;;;;;;5042928;28;20473;-55
2022/03/08 01:36:51;;;;;;;11.20;4.50;;;3.80;99.90;;;;;;5038005;28;20480;-56
2022/03/08 01:39:18;;;;;;;8.10;3.70;;;3.80;99.90;;;;;;5038400;28;20461;-59
2022/03/08 01:41:45;;;;;;;5.30;3.40;;;3.80;99.90;;;;;;5034666;28;20473;-56
2022/03/08 01:44:13;;;;;;;5.00;3.30;;;3.70;99.90;;;;;;5052550;28;20768;-55
2022/03/08 01:46:40;;;;;;;6.73;4.60;;;3.70;99.90;;;;;;5055371;28;20460;-56
2022/03/08 01:49:07;;;;;;;8.13;3.50;;;3.70;99.90;;;;;;5054441;28;20512;-60
2022/03/08 01:51:36;;;;;;;7.33;3.77;;;3.70;99.90;;;;;;5053289;28;20455;-58
2022/03/08 01:54:03;;;;;;;14.00;3.50;;;3.70;99.90;;;;;;5054519;28;20582;-59
2022/03/08 01:56:30;;;;;;;4.40;3.47;;;3.70;99.90;;;;;;5052145;28;20440;-55
2022/03/08 01:58:57;;;;;;;8.20;4.67;;;3.60;99.90;;;;;;5056283;28;20468;-60
2022/03/08 02:01:25;;;;;;;8.93;3.83;;;3.60;99.90;;;;;;5054656;28;20424;-58
2022/03/08 02:03:52;;;;;;;4.47;3.03;;;3.60;99.90;;;;;;5039696;28;20445;-60
2022/03/08 02:06:19;;;;;;;7.93;3.90;;;3.60;99.90;;;;;;5035020;28;20465;-57
2022/03/08 02:08:45;;;;;;;4.80;3.43;;;3.60;99.90;;;;;;5032436;28;20465;-54
2022/03/08 02:11:14;;;;;;;8.30;4.33;;;3.60;99.90;;;;;;5034587;28;20483;-60
2022/03/08 02:13:40;;;;;;;8.57;4.10;;;3.60;99.90;;;;;;5049759;28;20453;-59
2022/03/08 02:16:07;;;;;;;3.70;3.33;;;3.60;99.90;;;;;;5051978;28;20432;-60
2022/03/08 02:18:36;;;;;;;6.93;3.67;;;3.60;99.90;;;;;;5039219;28;20542;-60
2022/03/08 02:21:06;;;;;;;5.50;3.30;;;3.60;99.90;;;;;;5032163;28;20453;-58
2022/03/08 02:23:33;;;;;;;7.40;2.97;;;3.60;99.90;;;;;;5050280;28;20445;-59
2022/03/08 02:26:01;;;;;;;6.93;4.07;;;3.60;99.90;;;;;;5052296;28;20428;-59
2022/03/08 02:28:28;;;;;;;6.50;4.10;;;3.60;99.90;;;;;;5040891;28;20484;-58
2022/03/08 02:30:56;;;;;;;6.23;3.57;;;3.60;99.90;;;;;;5032653;28;20488;-60
2022/03/08 02:33:22;;;;;;;8.90;4.20;;;3.60;99.90;;;;;;5042774;28;20445;-57
2022/03/08 02:35:49;;;;;;;9.27;4.67;;;3.60;99.90;;;;;;5051776;28;20468;-58
2022/03/08 02:38:17;;;;;;;8.13;3.90;;;3.60;99.90;;;;;;5037085;28;20477;-61
2022/03/08 02:40:44;;;;;;;5.73;3.20;;;3.60;99.90;;;;;;5032375;28;20451;-60
2022/03/08 02:43:12;;;;;;;8.20;4.20;;;3.60;99.90;;;;;;5051625;28;20478;-60
2022/03/08 02:45:40;;;;;;;10.67;4.20;;;3.60;99.90;;;;;;5051811;28;20456;-57
2022/03/08 02:48:07;;;;;;;6.80;3.57;;;3.60;99.90;;;;;;5051561;28;20472;-61
2022/03/08 02:50:34;;;;;;;6.97;3.47;;;3.50;99.90;;;;;;5052111;28;20448;-61
2022/03/08 02:53:01;;;;;;;8.47;5.33;;;3.50;99.90;;;;;;5051321;28;20452;-61
2022/03/08 02:55:33;;;;;;;7.53;3.03;;;3.50;99.90;;;;;;5052544;28;20420;-61
2022/03/08 02:58:00;;;;;;;5.37;3.27;;;3.40;99.90;;;;;;5036304;28;20532;-58
2022/03/08 03:00:29;;;;;;;8.33;4.23;;;3.40;99.90;;;;;;5033087;28;20465;-57
2022/03/08 03:02:55;;;;;;;5.90;3.33;;;3.40;99.90;;;;;;5033152;28;20445;-61
2022/03/08 03:05:22;;;;;;;9.80;4.10;;;3.30;99.90;;;;;;5039075;28;20448;-61
2022/03/08 03:07:49;;;;;;;6.80;3.73;;;3.40;99.90;;;;;;5052502;28;20436;-60
2022/03/08 03:10:18;;;;;;;6.80;3.70;;;3.30;99.90;;;;;;5049708;28;20461;-57
2022/03/08 03:12:46;;;;;;;5.70;2.80;;;3.30;99.90;;;;;;5035093;28;20500;-58
2022/03/08 03:15:14;;;;;;;6.37;3.60;;;3.30;99.90;;;;;;5037543;28;20475;-57
2022/03/08 03:17:42;;;;;;;4.50;3.57;;;3.30;99.90;;;;;;5051838;28;20780;-60
2022/03/08 03:20:11;;;;;;;4.77;3.10;;;3.30;99.90;;;;;;5049513;28;20437;-61
2022/03/08 03:22:38;;;;;;;7.40;3.70;;;3.30;99.90;;;;;;5032949;28;20433;-62
2022/03/08 03:25:05;;;;;;;9.07;3.00;;;3.20;99.90;;;;;;5033602;28;20465;-56
2022/03/08 03:27:32;;;;;;;8.47;3.63;;;3.20;99.90;;;;;;5052623;28;20436;-56
2022/03/08 03:30:00;;;;;;;11.10;3.70;;;3.20;99.90;;;;;;5044015;28;20468;-57
2022/03/08 03:32:27;;;;;;;8.00;3.93;;;3.10;99.90;;;;;;5032625;28;20441;-59
2022/03/08 03:34:54;;;;;;;10.73;3.63;;;3.10;99.90;;;;;;5039304;28;20460;-59
2022/03/08 03:37:20;;;;;;;6.70;3.67;;;3.10;99.90;;;;;;5052648;28;20479;-60
2022/03/08 03:39:47;;;;;;;9.43;4.63;;;3.00;99.90;;;;;;5053029;28;20487;-57
2022/03/08 03:42:14;;;;;;;7.60;3.00;;;3.00;99.90;;;;;;5045356;28;20449;-57
2022/03/08 03:44:40;;;;;;;10.50;6.40;;;3.00;99.90;;;;;;5036599;28;20455;-58
2022/03/08 03:47:09;;;;;;;4.63;2.47;;;3.00;99.90;;;;;;5052389;28;20471;-59
2022/03/08 03:49:37;;;;;;;8.63;3.90;;;2.90;99.90;;;;;;5049578;28;20464;-60
2022/03/08 03:52:05;;;;;;;6.30;3.73;;;3.00;99.90;;;;;;5033474;28;20836;-58
2022/03/08 03:54:31;;;;;;;7.53;3.73;;;2.90;99.90;;;;;;5041785;28;20448;-56
2022/03/08 03:56:58;;;;;;;6.20;3.37;;;2.90;99.90;;;;;;5052222;28;20443;-56
2022/03/08 03:59:25;;;;;;;5.50;2.97;;;2.90;99.90;;;;;;5043973;28;20469;-59
2022/03/08 04:01:51;;;;;;;4.20;3.23;;;2.90;99.90;;;;;;5046101;28;20503;-59
2022/03/08 04:04:19;;;;;;;4.77;3.47;;;3.00;99.90;;;;;;5051179;28;20475;-60
2022/03/08 04:06:46;;;;;;;5.93;3.23;;;3.00;99.90;;;;;;5039872;28;20452;-59
2022/03/08 04:09:13;;;;;;;7.37;3.23;;;3.00;99.90;;;;;;5032383;28;20476;-56
2022/03/08 04:11:40;;;;;;;4.57;3.60;;;2.90;99.90;;;;;;5032293;28;20475;-59
2022/03/08 04:14:07;;;;;;;8.13;3.53;;;2.90;99.90;;;;;;5035303;28;20468;-58
2022/03/08 04:16:33;;;;;;;11.30;3.13;;;2.80;99.90;;;;;;5042535;28;20553;-57
2022/03/08 04:19:00;;;;;;;7.03;3.90;;;2.80;99.90;;;;;;5031766;28;20548;-59
2022/03/08 04:21:28;;;;;;;7.57;4.00;;;2.80;99.90;;;;;;5031659;28;20426;-60
2022/03/08 04:23:55;;;;;;;7.33;3.07;;;2.80;99.90;;;;;;5032565;28;20456;-58
2022/03/08 04:26:21;;;;;;;5.40;3.30;;;2.80;99.90;;;;;;5052140;28;20494;-59
2022/03/08 04:28:48;;;;;;;6.10;3.70;;;2.80;99.90;;;;;;5043428;28;20445;-59
2022/03/08 04:31:15;;;;;;;6.70;4.40;;;2.80;99.90;;;;;;5035251;28;20433;-57
2022/03/08 04:33:41;;;;;;;7.37;3.70;;;2.80;99.90;;;;;;5036590;28;20468;-60
2022/03/08 04:36:08;;;;;;;5.20;3.70;;;2.80;99.90;;;;;;5035752;28;20421;-58
2022/03/08 04:38:36;;;;;;;6.73;3.20;;;2.80;99.90;;;;;;5043918;28;20494;-60
2022/03/08 04:41:05;;;;;;;5.53;3.50;;;2.80;99.90;;;;;;5045927;28;20453;-60
2022/03/08 04:43:32;;;;;;;8.70;4.17;;;2.80;99.90;;;;;;5054000;28;20506;-62
2022/03/08 04:45:59;;;;;;;7.17;3.03;;;2.80;99.90;;;;;;5055020;28;20432;-59
2022/03/08 04:48:27;;;;;;;5.00;3.50;;;2.80;99.90;;;;;;5051388;28;20437;-58
2022/03/08 04:50:56;;;;;;;6.43;3.10;;;2.80;99.90;;;;;;5057230;28;20464;-59
2022/03/08 04:53:23;;;;;;;10.77;4.27;;;2.80;99.90;;;;;;5040067;28;20445;-60
2022/03/08 04:55:51;;;;;;;8.37;4.27;;;2.80;99.90;;;;;;5035569;28;20464;-59
2022/03/08 04:58:17;;;;;;;4.50;3.57;;;2.80;99.90;;;;;;5037374;28;20487;-61
2022/03/08 05:00:44;;;;;;;7.50;4.20;;;2.80;99.90;;;;;;5035011;28;20453;-59
2022/03/08 05:03:11;;;;;;;8.20;4.63;;;2.80;99.90;;;;;;5048087;28;20467;-58
2022/03/08 05:05:38;;;;;;;7.70;3.43;;;2.80;99.90;;;;;;5036282;28;20445;-59
2022/03/08 05:08:05;;;;;;;4.73;3.33;;;2.80;99.90;;;;;;5045794;28;20483;-56
2022/03/08 05:10:32;;;;;;;4.87;3.10;;;2.80;99.90;;;;;;5054943;28;20440;-59
2022/03/08 05:13:00;;;;;;;6.37;3.13;;;2.80;99.90;;;;;;5053673;28;20464;-59
2022/03/08 05:15:27;;;;;;;5.83;4.00;;;2.80;99.90;;;;;;5054520;28;20450;-59
2022/03/08 05:17:54;;;;;;;5.37;3.50;;;2.80;99.90;;;;;;5020455;28;1020432;-56
2022/03/08 05:20:21;;;;;;;10.33;4.67;;;2.90;99.90;;;;;;5055425;28;20222;-59
2022/03/08 05:22:47;;;;;;;6.53;3.97;;;2.80;99.90;;;;;;5037401;28;20457;-60
2022/03/08 05:25:14;;;;;;;8.17;4.00;;;2.90;99.90;;;;;;5035390;28;20453;-58
2022/03/08 05:27:41;;;;;;;10.17;4.93;;;2.90;99.90;;;;;;5047785;28;20452;-58
2022/03/08 05:30:12;;;;;;;6.13;3.43;;;2.90;99.90;;;;;;5034528;28;20453;-60
2022/03/08 05:32:41;;;;;;;7.10;4.20;;;2.90;99.90;;;;;;5049531;28;20467;-59
2022/03/08 05:35:08;;;;;;;7.80;4.07;;;2.90;99.90;;;;;;5041058;28;20465;-59
2022/03/08 05:37:36;;;;;;;8.20;4.90;;;3.00;99.90;;;;;;5034519;28;20437;-60
2022/03/08 05:40:04;;;;;;;8.23;3.40;;;2.90;99.90;;;;;;5036765;28;20453;-54
2022/03/08 05:42:31;;;;;;;6.13;3.67;;;2.90;99.90;;;;;;5036925;28;20472;-60
2022/03/08 05:44:58;;;;;;;9.20;4.50;;;2.90;99.90;;;;;;5047314;28;20849;-56
2022/03/08 05:47:26;;;;;;;5.47;3.50;;;2.80;99.90;;;;;;5054577;28;20451;-58
2022/03/08 05:49:52;;;;;;;4.90;3.83;;;2.80;99.90;;;;;;5044751;28;20441;-58
2022/03/08 05:52:19;;;;;;;5.43;3.70;;;2.80;99.90;;;;;;5036224;28;20452;-56
2022/03/08 05:54:46;;;;;;;5.50;3.33;;;2.80;99.90;;;;;;5038564;28;20816;-59
2022/03/08 05:57:12;;;;;;;8.70;4.27;;;2.80;99.90;;;;;;5035390;28;20457;-59
2022/03/08 05:59:39;;;;;;;6.20;3.70;;;2.80;99.90;;;;;;5043213;28;20944;-60
2022/03/08 06:02:05;;;;;;;5.00;3.60;;;2.80;99.90;;;;;;5055402;28;20452;-60
2022/03/08 06:04:34;;;;;;;8.67;5.40;;;2.80;99.90;;;;;;5049626;28;20843;-60
2022/03/08 06:07:01;;;;;;;10.73;4.10;;;2.80;99.90;;;;;;5035019;28;20464;-59
2022/03/08 06:09:27;;;;;;;5.53;3.50;;;2.80;99.90;;;;;;5039806;28;20455;-61
2022/03/08 06:11:54;;;;;;;6.80;3.80;;;2.90;99.90;;;;;;5044926;28;20444;-60
2022/03/08 06:14:21;;;;;;;7.60;4.70;;;2.80;99.90;;;;;;5038055;28;20468;-60
2022/03/08 06:16:48;;;;;;;6.07;4.37;;;2.80;99.90;;;;;;5055560;28;20444;-58
2022/03/08 06:19:14;;;;;;;10.90;5.20;;;2.90;99.90;;;;;;5054514;28;20484;-58
2022/03/08 06:21:43;;;;;;;5.47;3.67;;;2.90;99.90;;;;;;5035725;28;20445;-62
2022/03/08 06:24:11;;;;;;;5.80;4.10;;;2.90;99.90;;;;;;5049151;28;20434;-52
2022/03/08 06:26:38;;;;;;;4.80;3.47;;;2.90;99.90;;;;;;5053867;28;20516;-58
2022/03/08 06:29:05;;;;;;;7.63;3.47;;;2.90;99.90;;;;;;5044263;28;20452;-59
2022/03/08 06:31:32;;;;;;;10.97;4.50;;;2.90;99.90;;;;;;5039059;28;20472;-59
2022/03/08 06:33:58;;;;;;;11.17;4.60;;;2.90;99.90;;;;;;5056589;28;20447;-57
2022/03/08 06:36:25;;;;;;;5.20;3.57;;;2.90;99.90;;;;;;5053517;28;20502;-56
2022/03/08 06:38:53;;;;;;;6.57;3.70;;;3.00;99.90;;;;;;5053909;28;20484;-60
2022/03/08 06:41:20;;;;;;;6.53;3.53;;;3.00;99.90;;;;;;5051217;28;20467;-60
2022/03/08 06:43:47;;;;;;;10.93;5.50;;;3.00;99.90;;;;;;5036247;28;20445;-57
2022/03/08 06:46:13;;;;;;;8.30;5.10;;;3.00;99.90;;;;;;5037165;28;20426;-57
2022/03/08 06:48:42;;;;;;;14.10;4.67;;;3.10;99.90;;;;;;5054874;28;20437;-58
2022/03/08 06:51:08;;;;;;;13.33;4.70;;;3.10;99.90;;;;;;5052069;28;20925;-54
2022/03/08 06:53:35;;;;;;;8.50;4.77;;;3.10;99.90;;;;;;5032828;28;20462;-59
2022/03/08 06:56:03;;;;;;;10.13;4.60;;;3.10;99.90;;;;;;5036036;28;20475;-57
2022/03/08 06:58:30;;;;;;;9.17;4.83;;;3.10;99.90;;;;;;5043506;28;20526;-56
2022/03/08 07:00:57;;;;;;;13.87;5.23;;;3.10;99.90;;;;;;5036646;28;20647;-57
2022/03/08 07:03:24;;;;;;;9.73;5.70;;;3.10;99.90;;;;;;5046945;28;20456;-56
2022/03/08 07:05:50;;;;;;;13.00;6.60;;;3.10;99.90;;;;;;5037525;28;20425;-60
2022/03/08 07:08:17;;;;;;;7.93;4.87;;;3.10;99.90;;;;;;5047082;28;20988;-59
2022/03/08 07:10:44;;;;;;;9.70;5.67;;;3.10;99.90;;;;;;5035906;28;20449;-60
2022/03/08 07:13:12;;;;;;;10.73;6.40;;;3.10;99.90;;;;;;5042895;28;20437;-63
2022/03/08 07:15:39;;;;;;;12.20;7.13;;;3.30;99.90;;;;;;5043247;28;20921;-58
2022/03/08 07:18:06;;;;;;;11.90;6.90;;;3.10;99.90;;;;;;5052498;28;20502;-58
2022/03/08 07:20:32;;;;;;;15.57;8.23;;;3.10;99.90;;;;;;5049946;28;20473;-59
2022/03/08 07:22:59;;;;;;;8.33;6.40;;;3.10;99.90;;;;;;5049205;28;20487;-56
2022/03/08 07:25:27;;;;;;;10.33;8.10;;;3.20;99.90;;;;;;5037763;28;20864;-60
2022/03/08 07:27:54;;;;;;;11.03;7.37;;;3.20;99.90;;;;;;5036245;28;20460;-61
2022/03/08 07:30:22;;;;;;;35.10;8.07;;;3.20;99.90;;;;;;5037655;28;20500;-61
2022/03/08 07:32:51;;;;;;;9.10;6.23;;;3.20;99.90;;;;;;5040304;28;20472;-58
2022/03/08 07:35:18;;;;;;;6.20;5.60;;;3.30;99.90;;;;;;5052986;28;20452;-57
2022/03/08 07:37:45;;;;;;;8.07;6.13;;;3.30;99.90;;;;;;5039106;28;20439;-55
2022/03/08 07:40:13;;;;;;;9.63;5.43;;;3.40;99.90;;;;;;5033027;28;20849;-60
2022/03/08 07:42:39;;;;;;;11.57;7.20;;;3.50;99.90;;;;;;5036397;28;20967;-63
2022/03/08 07:45:07;;;;;;;10.53;6.00;;;3.50;99.90;;;;;;5032856;28;20467;-54
2022/03/08 07:47:38;;;;;;;7.43;6.37;;;3.60;99.90;;;;;;5033364;28;20445;-60
2022/03/08 07:50:06;;;;;;;13.33;6.83;;;3.70;99.90;;;;;;5049695;28;20440;-57
2022/03/08 07:52:33;;;;;;;12.50;6.93;;;3.70;99.90;;;;;;5054138;28;20463;-59
2022/03/08 07:55:00;;;;;;;12.87;7.30;;;3.90;99.90;;;;;;5054473;28;20424;-59
2022/03/08 07:57:30;;;;;;;8.43;6.67;;;4.00;99.90;;;;;;5055240;28;20456;-60
2022/03/08 07:59:56;;;;;;;8.50;6.97;;;4.10;99.90;;;;;;5055726;28;20465;-59
2022/03/08 08:02:25;;;;;;;11.93;6.63;;;4.20;99.90;;;;;;5054496;28;20448;-50
2022/03/08 08:04:53;;;;;;;9.60;5.90;;;4.30;99.90;;;;;;5054553;28;20475;-56
2022/03/08 08:07:20;;;;;;;10.70;5.50;;;4.30;99.90;;;;;;5050307;28;20453;-57
2022/03/08 08:09:46;;;;;;;13.77;5.90;;;4.40;99.90;;;;;;5031409;28;20515;-62
2022/03/08 08:12:13;;;;;;;9.47;5.43;;;4.40;99.90;;;;;;5045943;28;20433;-60
2022/03/08 08:14:40;;;;;;;9.20;5.53;;;4.50;99.90;;;;;;5053636;28;20512;-59
2022/03/08 08:17:07;;;;;;;7.20;4.77;;;4.50;99.90;;;;;;5047245;28;20428;-60
2022/03/08 08:19:35;;;;;;;10.50;4.33;;;4.60;99.90;;;;;;5049965;28;20461;-57
2022/03/08 08:22:03;;;;;;;5.40;2.90;;;4.70;99.90;;;;;;5053811;28;20960;-58
2022/03/08 08:24:30;;;;;;;4.57;3.47;;;4.80;99.90;;;;;;5054069;28;20444;-55
2022/03/08 08:26:57;;;;;;;5.47;2.97;;;4.80;99.90;;;;;;5053803;28;20459;-58
2022/03/08 08:29:24;;;;;;;7.97;3.00;;;4.90;99.90;;;;;;5052988;28;20448;-59
2022/03/08 08:31:50;;;;;;;7.30;2.70;;;5.00;99.90;;;;;;5053763;28;20444;-60
2022/03/08 08:34:17;;;;;;;5.00;3.07;;;5.00;99.90;;;;;;5053275;28;20464;-55
2022/03/08 08:36:46;;;;;;;5.40;4.13;;;5.10;99.90;;;;;;5053168;28;20472;-56
2022/03/08 08:39:18;;;;;;;4.57;2.93;;;5.10;99.90;;;;;;5052912;28;20519;-56
2022/03/08 08:41:46;;;;;;;2.23;2.00;;;5.20;99.90;;;;;;5053464;28;20424;-58
2022/03/08 08:44:13;;;;;;;7.10;3.40;;;5.20;99.90;;;;;;5053465;28;20452;-56
2022/03/08 08:46:40;;;;;;;4.27;3.07;;;5.30;99.90;;;;;;5052680;28;20452;-55
2022/03/08 08:49:07;;;;;;;6.70;3.10;;;5.40;99.90;;;;;;5052889;28;20493;-60
2022/03/08 08:51:34;;;;;;;10.50;4.03;;;5.50;99.90;;;;;;5050018;28;20475;-59
2022/03/08 08:54:01;;;;;;;6.13;3.10;;;5.60;99.90;;;;;;5052825;28;20460;-58
2022/03/08 08:56:29;;;;;;;9.77;3.30;;;5.70;99.90;;;;;;5048261;28;20524;-61
2022/03/08 08:58:56;;;;;;;4.47;3.40;;;5.90;99.90;;;;;;5046534;28;20483;-59
2022/03/08 09:01:22;;;;;;;4.10;3.37;;;6.30;99.90;;;;;;5050023;28;20460;-58
2022/03/08 09:03:51;;;;;;;5.77;3.70;;;7.60;99.90;;;;;;5048573;28;20455;-59
2022/03/08 09:06:18;;;;;;;5.70;3.13;;;9.30;99.90;;;;;;5042736;28;20594;-58
2022/03/08 09:08:47;;;;;;;8.03;4.00;;;11.30;99.90;;;;;;5038638;28;20487;-60
2022/03/08 09:11:13;;;;;;;7.53;4.20;;;13.40;92.90;;;;;;5038728;28;20494;-61
2022/03/08 09:13:44;;;;;;;5.23;3.87;;;15.00;81.90;;;;;;5039917;28;20464;-60
2022/03/08 09:16:11;;;;;;;6.67;4.00;;;16.70;69.40;;;;;;5041250;28;20460;-59
2022/03/08 09:18:37;;;;;;;5.67;4.30;;;18.30;60.50;;;;;;5041381;28;20480;-60
2022/03/08 09:21:05;;;;;;;7.30;4.40;;;19.70;54.60;;;;;;5039674;28;20451;-59
2022/03/08 09:23:32;;;;;;;7.57;4.33;;;20.80;49.50;;;;;;5041628;28;20514;-60
2022/03/08 09:25:58;;;;;;;4.53;4.03;;;21.50;46.90;;;;;;5040121;28;20463;-60
2022/03/08 09:28:25;;;;;;;5.33;4.83;;;22.40;45.30;;;;;;5040225;28;20530;-61
2022/03/08 09:30:53;;;;;;;6.73;5.07;;;22.80;42.50;;;;;;5039784;28;20463;-59
2022/03/08 09:33:20;;;;;;;5.63;4.90;;;22.20;41.20;;;;;;5040290;28;20428;-62
2022/03/08 09:35:47;;;;;;;7.03;5.80;;;21.10;41.60;;;;;;5041197;28;20510;-60
2022/03/08 09:38:16;;;;;;;6.40;5.30;;;19.70;42.80;;;;;;5041085;28;20464;-59
2022/03/08 09:40:43;;;;;;;9.30;5.33;;;18.20;44.60;;;;;;5041979;28;20916;-61
2022/03/08 09:43:09;;;;;;;11.03;5.77;;;16.90;46.60;;;;;;5042283;28;20526;-59
2022/03/08 09:45:37;;;;;;;7.03;4.80;;;15.60;48.70;;;;;;5043448;28;20453;-57
2022/03/08 09:48:05;;;;;;;7.50;5.33;;;14.50;50.90;;;;;;5040591;28;20455;-61
2022/03/08 09:50:32;;;;;;;7.50;4.60;;;14.40;51.90;;;;;;5040387;28;20526;-59
2022/03/08 09:53:00;;;;;;;10.40;5.40;;;15.30;52.10;;;;;;5041985;28;20460;-59
2022/03/08 09:55:27;;;;;;;8.87;7.50;;;16.40;50.40;;;;;;5040719;28;20459;-60
2022/03/08 09:57:58;;;;;;;6.80;4.50;;;17.40;48.70;;;;;;5041067;28;20856;-60
2022/03/08 10:00:28;;;;;;;8.90;4.93;;;18.60;46.60;;;;;;5042421;28;20472;-60
2022/03/08 10:02:56;;;;;;;6.07;3.90;;;19.30;45.50;;;;;;5040487;28;20437;-60
2022/03/08 10:05:25;;;;;;;6.00;3.83;;;19.80;44.40;;;;;;5040643;28;20812;-60
2022/03/08 10:08:13;;;;;;;6.00;4.53;;;20.30;43.10;;;;;;5041322;28;20476;-62
2022/03/08 10:10:49;;;;;;;7.17;3.63;;;20.60;41.90;;;;;;5040168;28;20930;-59
2022/03/08 10:13:20;;;;;;;3.80;2.80;;;20.30;41.10;;;;;;5040034;28;20455;-59
2022/03/08 10:16:08;;;;;;;6.50;3.93;;;20.90;42.00;;;;;;5040686;28;20441;-60
2022/03/08 10:18:36;;;;;;;6.97;3.90;;;20.20;41.60;;;;;;5040687;28;20477;-59
2022/03/08 10:21:05;;;;;;;5.27;3.30;;;20.30;41.70;;;;;;5040576;28;20875;-64
2022/03/08 10:23:41;;;;;;;5.50;3.37;;;20.30;41.40;;;;;;5040838;28;20480;-59
2022/03/08 10:26:11;;;;;;;4.90;2.90;;;20.50;41.20;;;;;;5040445;28;20866;-59
2022/03/08 10:28:45;;;;;;;5.20;4.00;;;20.10;41.70;;;;;;5042297;28;20460;-61
2022/03/08 10:31:14;;;;;;;4.63;2.80;;;20.00;41.80;;;;;;5041852;28;20820;-60
2022/03/08 10:33:41;;;;;;;7.23;3.00;;;19.80;40.80;;;;;;5042191;28;20448;-57
2022/03/08 10:36:15;;;;;;;6.80;3.73;;;19.80;40.60;;;;;;5041505;28;20548;-60
2022/03/08 10:38:57;;;;;;;5.57;3.10;;;19.70;40.50;;;;;;5042020;28;20494;-61
2022/03/08 10:41:24;;;;;;;3.93;2.87;;;19.70;40.70;;;;;;5041148;28;20492;-58
2022/03/08 10:43:51;;;;;;;3.83;2.93;;;19.40;40.10;;;;;;5041242;28;20467;-59
2022/03/08 10:46:19;;;;;;;2.83;2.13;;;19.20;40.90;;;;;;5039435;28;20475;-59
2022/03/08 10:48:47;;;;;;;3.50;2.57;;;19.10;41.20;;;;;;5041136;28;20506;-58
2022/03/08 10:51:22;;;;;;;6.73;2.97;;;19.00;42.10;;;;;;5040793;28;20546;-58
2022/03/08 10:53:49;;;;;;;7.90;4.03;;;19.00;41.00;;;;;;5040298;28;20435;-58
2022/03/08 10:56:23;;;;;;;6.23;3.07;;;19.00;41.20;;;;;;5040278;28;20788;-58
2022/03/08 10:58:51;;;;;;;4.53;3.50;;;18.80;41.70;;;;;;5040237;28;20459;-59
2022/03/08 11:01:20;;;;;;;4.47;2.70;;;18.80;41.70;;;;;;5042177;28;20557;-59
2022/03/08 11:04:00;;;;;;;4.43;2.77;;;18.70;41.90;;;;;;5040190;28;20444;-58
2022/03/08 11:06:30;;;;;;;9.40;4.10;;;18.30;41.70;;;;;;5040208;28;20449;-58
2022/03/08 11:08:57;;;;;;;4.47;3.17;;;17.90;42.10;;;;;;5042629;28;20455;-57
2022/03/08 11:11:23;;;;;;;4.33;2.97;;;17.70;42.90;;;;;;5039995;28;20452;-59
2022/03/08 11:13:52;;;;;;;3.57;3.03;;;17.60;43.20;;;;;;5041234;28;20468;-60
2022/03/08 11:16:19;;;;;;;4.20;3.10;;;17.30;43.30;;;;;;5039724;28;20518;-58
2022/03/08 11:18:50;;;;;;;4.83;2.93;;;17.10;43.60;;;;;;5041060;28;20460;-60
2022/03/08 11:21:17;;;;;;;7.20;3.43;;;16.70;43.50;;;;;;5040408;28;20531;-59
2022/03/08 11:23:46;;;;;;;6.70;2.93;;;16.40;44.00;;;;;;5041083;28;20491;-58
2022/03/08 11:26:15;;;;;;;3.50;2.87;;;15.90;44.30;;;;;;5038464;28;20448;-58
2022/03/08 11:28:43;;;;;;;3.83;1.90;;;15.60;45.90;;;;;;5042648;28;20444;-59
2022/03/08 11:31:11;;;;;;;2.60;1.80;;;15.40;45.70;;;;;;5041064;28;20464;-59
2022/03/08 11:33:47;;;;;;;4.73;2.20;;;15.10;45.70;;;;;;5041988;28;20468;-59
2022/03/08 11:36:21;;;;;;;3.90;2.40;;;14.70;46.50;;;;;;5040948;28;20880;-58
2022/03/08 11:39:19;;;;;;;4.70;2.50;;;14.50;47.00;;;;;;5041808;28;20432;-56
2022/03/08 11:41:47;;;;;;;3.77;2.23;;;14.20;47.40;;;;;;5041132;28;20494;-58
2022/03/08 11:44:23;;;;;;;6.27;2.57;;;13.90;47.60;;;;;;5040730;28;20539;-57
2022/03/08 11:47:02;;;;;;;3.33;2.23;;;13.60;48.00;;;;;;5040858;28;20472;-54
2022/03/08 11:49:45;;;;;;;4.97;2.67;;;13.40;48.30;;;;;;5043313;28;20482;-58
2022/03/08 11:52:19;;;;;;;3.97;2.70;;;13.20;48.90;;;;;;5041170;28;20971;-57
2022/03/08 11:55:03;;;;;;;2.57;1.80;;;13.00;49.40;;;;;;5045836;28;20440;-56
2022/03/08 11:57:53;;;;;;;4.30;2.50;;;12.80;50.00;;;;;;5041474;28;20437;-58
2022/03/08 12:00:22;;;;;;;3.57;2.80;;;12.70;51.10;;;;;;5024535;28;20502;-57
2022/03/08 12:02:51;;;;;;;4.77;2.27;;;12.50;50.90;;;;;;5023794;28;20448;-54
2022/03/08 12:05:58;;;;;;;5.20;2.60;;;12.40;51.30;;;;;;5025894;28;21017;-59
2022/03/08 12:08:45;;;;;;;5.30;3.17;;;12.10;51.30;;;;;;4964156;29;20443;-58
2022/03/08 12:11:40;;;;;;;2.23;1.80;;;11.90;51.90;;;;;;5022427;28;20484;-55
2022/03/08 12:14:12;;;;;;;2.80;1.80;;;11.90;52.00;;;;;;5024788;28;20461;-52
2022/03/08 12:16:40;;;;;;;3.67;1.90;;;11.90;52.20;;;;;;5022004;28;20441;-50
2022/03/08 12:19:09;;;;;;;3.33;2.03;;;11.90;52.40;;;;;;5020768;28;20496;-57
2022/03/08 12:21:42;;;;;;;5.13;2.53;;;12.00;52.30;;;;;;5018598;28;20529;-58
2022/03/08 12:24:14;;;;;;;4.67;2.17;;;12.00;52.70;;;;;;5019993;28;20476;-53
2022/03/08 12:26:53;;;;;;;9.33;3.13;;;12.10;52.60;;;;;;5020234;28;20429;-56
2022/03/08 12:29:23;;;;;;;4.23;1.87;;;12.10;52.10;;;;;;5020276;28;20447;-56
2022/03/08 12:32:29;;;;;;;3.00;1.97;;;12.00;51.80;;;;;;5019943;28;20506;-55
2022/03/08 12:35:00;;;;;;;5.00;2.40;;;11.90;52.20;;;;;;5017803;28;20434;-55
2022/03/08 12:37:29;;;;;;;3.97;2.30;;;11.90;52.00;;;;;;5018116;28;20504;-54
2022/03/08 12:39:59;;;;;;;3.87;1.93;;;11.80;51.90;;;;;;5018172;28;20503;-54
2022/03/08 12:42:31;;;;;;;4.57;2.10;;;11.80;52.80;;;;;;5021146;28;20449;-54
2022/03/08 12:45:04;;;;;;;3.53;2.10;;;11.90;52.80;;;;;;5023767;28;20477;-56
2022/03/08 12:47:33;;;;;;;2.33;1.90;;;12.00;52.80;;;;;;5021955;28;20441;-56
2022/03/08 12:50:06;;;;;;;5.07;2.67;;;12.00;53.00;;;;;;5027597;28;20469;-60
2022/03/08 12:52:38;;;;;;;7.90;2.00;;;12.10;52.10;;;;;;5027717;28;20441;-54
2022/03/08 12:55:07;;;;;;;3.27;2.07;;;12.10;52.50;;;;;;5026884;28;20435;-53
2022/03/08 12:57:45;;;;;;;3.23;1.90;;;12.20;51.90;;;;;;5025325;28;20480;-52
2022/03/08 13:00:23;;;;;;;3.97;2.53;;;12.20;52.30;;;;;;5024897;28;20470;-55